createdAt,value
2018-03-17T00:01:26.840Z,19.10
2018-03-17T00:03:55.125Z,17.33
2018-03-17T00:06:23.428Z,16.00
2018-03-17T00:08:50.967Z,16.80
2018-03-17T00:11:19.306Z,16.33
2018-03-17T00:13:46.817Z,17.73
2018-03-17T00:16:14.331Z,16.40
2018-03-17T00:18:41.881Z,18.10
2018-03-17T00:21:10.160Z,18.07
2018-03-17T00:23:38.783Z,18.67
2018-03-17T00:26:06.300Z,18.17
2018-03-17T00:28:33.822Z,17.47
2018-03-17T00:31:01.361Z,18.80
2018-03-17T00:33:28.872Z,21.63
2018-03-17T00:35:56.410Z,17.27
2018-03-17T00:38:24.687Z,20.20
2018-03-17T00:40:52.198Z,20.77
2018-03-17T00:43:19.736Z,20.60
2018-03-17T00:45:48.019Z,19.03
2018-03-17T00:48:15.559Z,19.43
2018-03-17T00:50:43.140Z,22.27
2018-03-17T00:53:10.658Z,21.50
2018-03-17T00:55:38.192Z,21.13
2018-03-17T00:58:05.705Z,20.37
2018-03-17T01:00:33.241Z,20.43
2018-03-17T01:03:00.757Z,20.73
2018-03-17T01:05:28.303Z,21.43
2018-03-17T01:07:56.588Z,20.87
2018-03-17T01:10:24.869Z,23.87
2018-03-17T01:12:53.172Z,21.10
2018-03-17T01:15:20.689Z,21.30
2018-03-17T01:17:48.223Z,22.40
2018-03-17T01:20:15.732Z,20.90
2018-03-17T01:22:43.260Z,18.90
2018-03-17T01:25:10.776Z,20.33
2018-03-17T01:27:38.744Z,21.60
2018-03-17T01:30:06.291Z,21.67
2018-03-17T01:32:33.792Z,22.27
2018-03-17T01:35:01.326Z,21.87
2018-03-17T01:37:28.836Z,20.10
2018-03-17T01:39:56.376Z,24.37
2018-03-17T01:42:23.888Z,21.03
2018-03-17T01:44:51.398Z,20.63
2018-03-17T01:47:18.932Z,21.97
2018-03-17T01:49:46.444Z,22.63
2018-03-17T01:52:14.000Z,19.87
2018-03-17T01:54:42.276Z,20.90
2018-03-17T01:57:10.558Z,21.60
2018-03-17T01:59:38.093Z,20.43
2018-03-17T02:02:05.609Z,20.67
2018-03-17T02:04:33.905Z,19.77
2018-03-17T02:07:02.185Z,20.27
2018-03-17T02:09:30.487Z,21.10
2018-03-17T02:11:58.008Z,21.63
2018-03-17T02:14:25.516Z,21.30
2018-03-17T02:16:53.816Z,22.67
2018-03-17T02:19:22.092Z,21.27
2018-03-17T02:21:50.384Z,20.70
2018-03-17T02:24:18.666Z,20.07
2018-03-17T02:26:46.960Z,24.97
2018-03-17T02:29:15.237Z,21.83
2018-03-17T02:31:43.929Z,22.83
2018-03-17T02:34:11.440Z,21.27
2018-03-17T02:36:38.973Z,22.03
2018-03-17T02:39:06.555Z,20.80
2018-03-17T02:41:34.867Z,23.50
2018-03-17T02:44:02.380Z,22.03
2018-03-17T02:46:29.908Z,21.37
2018-03-17T02:48:57.462Z,22.20
2018-03-17T02:51:25.749Z,20.37
2018-03-17T02:53:54.056Z,22.17
2018-03-17T02:56:21.581Z,23.13
2018-03-17T02:58:49.099Z,20.87
2018-03-17T03:01:16.639Z,21.33
2018-03-17T03:03:44.916Z,19.63
2018-03-17T03:06:12.468Z,21.83
2018-03-17T03:08:39.979Z,21.20
2018-03-17T03:11:08.256Z,22.00
2018-03-17T03:13:36.560Z,23.00
2018-03-17T03:16:04.843Z,22.13
2018-03-17T03:18:33.460Z,18.63
2018-03-17T03:21:00.968Z,24.13
2018-03-17T03:23:28.484Z,21.20
2018-03-17T03:25:56.786Z,22.40
2018-03-17T03:28:24.316Z,19.00
2018-03-17T03:30:51.860Z,21.70
2018-03-17T03:33:20.140Z,17.73
2018-03-17T03:35:47.644Z,18.17
2018-03-17T03:38:15.180Z,20.73
2018-03-17T03:40:42.728Z,18.73
2018-03-17T03:43:10.261Z,18.37
2018-03-17T03:45:38.552Z,19.67
2018-03-17T03:48:06.088Z,20.00
2018-03-17T03:50:33.600Z,18.17
2018-03-17T03:53:01.880Z,18.53
2018-03-17T03:55:30.252Z,17.97
2018-03-17T03:57:57.759Z,16.20
2018-03-17T04:00:26.370Z,17.40
2018-03-17T04:02:53.883Z,19.23
2018-03-17T04:05:21.391Z,17.87
2018-03-17T04:07:49.695Z,16.63
2018-03-17T04:10:17.964Z,16.60
2018-03-17T04:12:46.264Z,17.17
2018-03-17T04:15:13.777Z,16.47
2018-03-17T04:17:41.284Z,16.10
2018-03-17T04:20:09.586Z,16.67
2018-03-17T04:22:37.864Z,18.63
2018-03-17T04:25:06.164Z,15.50
2018-03-17T04:27:34.440Z,18.53
2018-03-17T04:30:03.042Z,14.60
2018-03-17T04:32:31.349Z,18.53
2018-03-17T04:34:58.860Z,17.80
2018-03-17T04:37:26.698Z,14.83
2018-03-17T04:39:54.232Z,15.23
2018-03-17T04:42:21.743Z,18.40
2018-03-17T04:44:49.276Z,17.60
2018-03-17T04:47:16.793Z,18.13
2018-03-17T04:49:44.330Z,17.67
2018-03-17T04:52:12.612Z,15.80
2018-03-17T04:54:40.916Z,18.07
2018-03-17T04:57:09.208Z,16.20
2018-03-17T04:59:36.724Z,17.27
2018-03-17T05:02:04.547Z,17.03
2018-03-17T05:04:32.824Z,16.50
2018-03-17T05:07:01.296Z,15.93
2018-03-17T05:09:28.900Z,16.17
2018-03-17T05:11:57.181Z,16.83
2018-03-17T05:14:25.489Z,16.60
2018-03-17T05:16:53.005Z,15.50
2018-03-17T05:19:20.523Z,16.07
2018-03-17T05:21:48.070Z,14.10
2018-03-17T05:24:15.592Z,15.67
2018-03-17T05:26:43.124Z,13.67
2018-03-17T05:29:11.409Z,16.00
2018-03-17T05:31:39.684Z,14.30
2018-03-17T05:34:07.220Z,14.70
2018-03-17T05:36:34.742Z,15.97
2018-03-17T05:39:03.049Z,17.07
2018-03-17T05:41:30.576Z,15.37
2018-03-17T05:43:58.167Z,16.67
2018-03-17T05:46:26.450Z,14.60
2018-03-17T05:48:53.969Z,14.93
2018-03-17T05:51:21.516Z,17.17
2018-03-17T05:53:49.796Z,17.77
2018-03-17T05:56:18.100Z,18.10
2018-03-17T05:58:45.625Z,15.93
2018-03-17T06:01:13.168Z,15.03
2018-03-17T06:03:40.684Z,16.17
2018-03-17T06:06:08.989Z,16.17
2018-03-17T06:08:37.274Z,15.30
2018-03-17T06:11:05.581Z,14.97
2018-03-17T06:13:33.109Z,14.93
2018-03-17T06:16:00.953Z,16.93
2018-03-17T06:18:28.477Z,13.13
2018-03-17T06:20:56.057Z,15.23
2018-03-17T06:23:24.336Z,16.10
2018-03-17T06:25:51.926Z,15.70
2018-03-17T06:28:19.474Z,14.27
2018-03-17T06:30:47.786Z,13.80
2018-03-17T06:33:15.326Z,16.17
2018-03-17T06:35:42.852Z,16.07
2018-03-17T06:38:10.419Z,16.47
2018-03-17T06:40:37.965Z,14.57
2018-03-17T06:43:05.525Z,16.43
2018-03-17T06:45:33.813Z,16.43
2018-03-17T06:48:02.120Z,15.07
2018-03-17T06:50:29.660Z,14.07
2018-03-17T06:52:57.208Z,13.70
2018-03-17T06:55:24.719Z,11.43
2018-03-17T06:57:53.020Z,13.67
2018-03-17T07:00:20.534Z,13.93
2018-03-17T07:02:48.093Z,12.80
2018-03-17T07:05:16.496Z,13.67
2018-03-17T07:07:44.021Z,14.57
2018-03-17T07:10:11.575Z,13.63
2018-03-17T07:12:40.021Z,11.93
2018-03-17T07:15:07.617Z,12.17
2018-03-17T07:17:35.137Z,13.67
2018-03-17T07:20:02.686Z,13.10
2018-03-17T07:22:30.206Z,11.30
2018-03-17T07:24:57.755Z,13.33
2018-03-17T07:27:25.293Z,11.50
2018-03-17T07:29:53.601Z,12.97
2018-03-17T07:32:21.128Z,12.07
2018-03-17T07:34:48.736Z,12.87
2018-03-17T07:37:16.312Z,12.07
2018-03-17T07:39:43.854Z,10.57
2018-03-17T07:42:11.392Z,12.10
2018-03-17T07:44:38.937Z,11.77
2018-03-17T07:47:06.470Z,11.17
2018-03-17T07:49:34.766Z,12.50
2018-03-17T07:52:03.614Z,12.33
2018-03-17T07:54:31.135Z,10.87
2018-03-17T07:56:58.725Z,11.33
2018-03-17T07:59:26.246Z,12.77
2018-03-17T08:01:53.791Z,11.33
2018-03-17T08:04:21.321Z,13.47
2018-03-17T08:06:49.632Z,12.47
2018-03-17T08:09:17.158Z,12.33
2018-03-17T08:11:44.693Z,11.53
2018-03-17T08:14:12.240Z,10.80
2018-03-17T08:16:39.777Z,10.27
2018-03-17T08:19:07.498Z,10.77
2018-03-17T08:21:35.029Z,11.57
2018-03-17T08:24:03.337Z,11.13
2018-03-17T08:26:30.877Z,10.07
2018-03-17T08:28:58.392Z,11.23
2018-03-17T08:31:25.904Z,9.67
2018-03-17T08:33:53.436Z,10.17
2018-03-17T08:36:20.949Z,9.03
2018-03-17T08:38:48.675Z,8.93
2018-03-17T08:41:16.200Z,10.63
2018-03-17T08:43:43.741Z,10.87
2018-03-17T08:46:11.256Z,9.77
2018-03-17T08:48:39.566Z,10.90
2018-03-17T08:51:07.086Z,11.00
2018-03-17T08:53:34.629Z,10.57
2018-03-17T08:56:02.157Z,11.33
2018-03-17T08:58:29.708Z,10.10
2018-03-17T09:00:57.222Z,9.93
2018-03-17T09:03:24.759Z,9.63
2018-03-17T09:05:53.050Z,9.10
2018-03-17T09:08:20.595Z,10.13
2018-03-17T09:10:48.133Z,10.73
2018-03-17T09:13:15.652Z,11.20
2018-03-17T09:15:43.369Z,11.13
2018-03-17T09:18:10.918Z,12.10
2018-03-17T09:20:39.218Z,9.77
2018-03-17T09:23:07.502Z,11.90
2018-03-17T09:25:35.812Z,10.83
2018-03-17T09:28:03.328Z,13.30
2018-03-17T09:30:31.397Z,10.77
2018-03-17T09:32:58.916Z,13.43
2018-03-17T09:35:27.213Z,10.87
2018-03-17T09:37:54.728Z,8.83
2018-03-17T09:40:22.592Z,11.97
2018-03-17T09:42:50.117Z,10.50
2018-03-17T09:45:18.416Z,9.70
2018-03-17T09:47:45.935Z,10.23
2018-03-17T09:50:13.474Z,10.07
2018-03-17T09:52:41.008Z,11.57
2018-03-17T09:55:08.553Z,11.57
2018-03-17T09:57:36.069Z,9.77
2018-03-17T10:00:03.600Z,10.07
2018-03-17T10:02:31.141Z,9.83
2018-03-17T10:04:58.662Z,10.13
2018-03-17T10:07:26.969Z,11.03
2018-03-17T10:09:55.248Z,9.37
2018-03-17T10:12:23.546Z,9.30
2018-03-17T10:14:51.835Z,9.37
2018-03-17T10:17:19.382Z,10.23
2018-03-17T10:19:46.897Z,9.93
2018-03-17T10:22:14.445Z,8.30
2018-03-17T10:24:42.725Z,11.87
2018-03-17T10:27:11.033Z,9.63
2018-03-17T10:29:38.553Z,10.13
2018-03-17T10:32:06.098Z,13.20
2018-03-17T10:34:33.615Z,10.27
2018-03-17T10:37:01.921Z,10.70
2018-03-17T10:39:30.240Z,8.27
2018-03-17T10:41:57.782Z,9.90
2018-03-17T10:44:26.088Z,8.63
2018-03-17T10:46:53.617Z,8.53
2018-03-17T10:49:21.158Z,8.97
2018-03-17T10:51:48.679Z,10.37
2018-03-17T10:54:17.036Z,8.57
2018-03-17T10:56:44.517Z,10.40
2018-03-17T10:59:12.068Z,9.87
2018-03-17T11:01:42.409Z,11.47
2018-03-17T11:04:09.967Z,10.87
2018-03-17T11:06:38.004Z,11.57
2018-03-17T11:09:05.540Z,8.77
2018-03-17T11:11:33.106Z,10.03
2018-03-17T11:14:00.611Z,8.77
2018-03-17T11:16:28.907Z,9.67
2018-03-17T11:18:56.482Z,8.73
2018-03-17T11:21:24.000Z,11.00
2018-03-17T11:23:51.516Z,10.33
2018-03-17T11:26:19.073Z,8.07
2018-03-17T11:28:47.370Z,10.53
2018-03-17T11:31:15.681Z,8.77
2018-03-17T11:33:43.202Z,9.63
2018-03-17T11:36:10.741Z,8.03
2018-03-17T11:38:38.258Z,8.27
2018-03-17T11:41:06.580Z,10.53
2018-03-17T11:43:34.095Z,8.97
2018-03-17T11:46:01.630Z,9.23
2018-03-17T11:48:29.157Z,8.70
2018-03-17T11:50:56.703Z,9.87
2018-03-17T11:53:24.224Z,9.73
2018-03-17T11:56:29.282Z,9.97
2018-03-17T11:58:56.798Z,7.70
2018-03-17T12:01:24.337Z,8.10
2018-03-17T12:03:51.862Z,7.30
2018-03-17T12:06:19.413Z,9.47
2018-03-17T12:08:46.928Z,9.40
2018-03-17T12:11:14.819Z,11.67
2018-03-17T12:13:42.333Z,9.27
2018-03-17T12:16:10.127Z,9.00
2018-03-17T12:18:38.402Z,8.60
2018-03-17T12:21:05.942Z,8.13
2018-03-17T12:23:33.489Z,9.20
2018-03-17T12:26:01.033Z,10.33
2018-03-17T12:28:33.165Z,9.60
2018-03-17T12:31:01.592Z,9.33
2018-03-17T12:33:29.198Z,8.00
2018-03-17T12:35:56.726Z,10.80
2018-03-17T12:38:24.268Z,10.23
2018-03-17T12:40:51.797Z,9.43
2018-03-17T12:43:20.112Z,10.37
2018-03-17T12:45:47.686Z,9.63
2018-03-17T12:48:15.225Z,8.83
2018-03-17T12:50:42.748Z,9.37
2018-03-17T12:53:10.294Z,9.03
2018-03-17T12:55:37.836Z,10.83
2018-03-17T12:58:06.288Z,11.47
2018-03-17T13:00:34.922Z,12.03
2018-03-17T13:03:03.205Z,9.80
2018-03-17T13:05:30.736Z,9.97
2018-03-17T13:07:58.287Z,10.77
2018-03-17T13:10:25.860Z,10.40
2018-03-17T13:12:53.376Z,10.70
2018-03-17T13:15:20.905Z,9.70
2018-03-17T13:17:48.419Z,9.53
2018-03-17T13:20:15.936Z,12.17
2018-03-17T13:22:55.176Z,13.00
2018-03-17T13:25:22.741Z,11.77
2018-03-17T13:28:02.365Z,9.80
2018-03-17T13:30:29.876Z,9.67
2018-03-17T13:32:58.354Z,11.80
2018-03-17T13:35:38.712Z,12.73
2018-03-17T13:38:07.353Z,11.93
2018-03-17T13:40:47.214Z,9.60
2018-03-17T13:43:14.732Z,13.00
2018-03-17T13:45:42.265Z,10.37
2018-03-17T13:48:09.808Z,10.07
2018-03-17T13:50:37.405Z,10.43
2018-03-17T13:53:04.926Z,10.20
2018-03-17T13:55:32.485Z,9.70
2018-03-17T13:58:00.013Z,10.13
2018-03-17T14:00:27.529Z,11.27
2018-03-17T14:02:55.070Z,9.97
2018-03-17T14:05:22.584Z,10.43
2018-03-17T14:07:50.857Z,9.37
2018-03-17T14:10:18.392Z,8.77
2018-03-17T14:12:45.910Z,11.00
2018-03-17T14:15:13.861Z,10.70
2018-03-17T14:17:41.408Z,10.10
2018-03-17T14:20:08.920Z,10.90
2018-03-17T14:22:36.440Z,11.17
2018-03-17T14:25:03.969Z,9.20
2018-03-17T14:27:31.485Z,10.90
2018-03-17T14:29:58.996Z,11.03
2018-03-17T14:32:26.540Z,10.70
2018-03-17T14:34:54.044Z,9.60
2018-03-17T14:37:21.567Z,11.10
2018-03-17T14:39:49.104Z,10.80
2018-03-17T14:42:17.280Z,10.40
2018-03-17T14:44:44.774Z,9.27
2018-03-17T14:47:12.319Z,10.20
2018-03-17T14:49:40.595Z,10.10
2018-03-17T14:52:08.114Z,10.80
2018-03-17T14:54:35.779Z,9.87
2018-03-17T14:57:03.295Z,10.77
2018-03-17T14:59:30.809Z,11.63
2018-03-17T15:01:59.116Z,9.43
2018-03-17T15:04:26.644Z,13.30
2018-03-17T15:06:54.147Z,8.33
2018-03-17T15:09:21.680Z,9.47
2018-03-17T15:11:49.303Z,9.67
2018-03-17T15:14:16.819Z,8.40
2018-03-17T15:16:44.368Z,10.87
2018-03-17T15:19:11.872Z,10.47
2018-03-17T15:21:39.397Z,10.13
2018-03-17T15:24:06.943Z,10.40
2018-03-17T15:26:34.469Z,11.13
2018-03-17T15:29:02.004Z,9.60
2018-03-17T15:31:29.560Z,12.13
2018-03-17T15:33:57.127Z,9.33
2018-03-17T15:36:25.385Z,12.93
2018-03-17T15:38:53.701Z,11.70
2018-03-17T15:41:21.221Z,13.60
2018-03-17T15:43:48.743Z,11.00
2018-03-17T15:46:16.315Z,11.47
2018-03-17T15:48:43.817Z,12.20
2018-03-17T15:51:11.334Z,9.57
2018-03-17T15:53:39.130Z,10.53
2018-03-17T15:56:06.647Z,10.20
2018-03-17T15:58:34.173Z,10.30
2018-03-17T16:01:01.734Z,9.20
2018-03-17T16:03:29.253Z,10.43
2018-03-17T16:05:56.772Z,10.43
2018-03-17T16:08:24.324Z,10.20
2018-03-17T16:10:52.610Z,9.20
2018-03-17T16:13:20.128Z,11.13
2018-03-17T16:15:47.692Z,11.43
2018-03-17T16:18:15.244Z,10.70
2018-03-17T16:20:43.529Z,10.50
2018-03-17T16:23:11.857Z,13.17
2018-03-17T16:25:39.380Z,9.03
2018-03-17T16:28:07.668Z,10.40
2018-03-17T16:30:35.245Z,11.30
2018-03-17T16:33:03.543Z,9.87
2018-03-17T16:35:35.236Z,10.53
2018-03-17T16:38:02.776Z,11.90
2018-03-17T16:40:31.070Z,10.03
2018-03-17T16:42:59.386Z,10.53
2018-03-17T16:45:26.896Z,9.50
2018-03-17T16:47:54.664Z,9.77
2018-03-17T16:50:22.200Z,9.80
2018-03-17T16:52:49.719Z,9.97
2018-03-17T16:55:17.246Z,11.83
2018-03-17T16:57:44.818Z,11.27
2018-03-17T17:00:12.316Z,9.93
2018-03-17T17:02:39.849Z,12.17
2018-03-17T17:05:07.385Z,10.00
2018-03-17T17:07:35.659Z,11.17
2018-03-17T17:10:03.173Z,13.20
2018-03-17T17:12:30.732Z,12.17
2018-03-17T17:14:58.260Z,10.80
2018-03-17T17:17:25.785Z,11.43
2018-03-17T17:19:53.332Z,9.70
2018-03-17T17:22:21.617Z,10.37
2018-03-17T17:24:49.907Z,11.73
2018-03-17T17:27:18.214Z,10.23
2018-03-17T17:29:45.729Z,11.07
2018-03-17T17:32:13.254Z,10.10
2018-03-17T17:34:41.137Z,10.73
2018-03-17T17:37:08.657Z,10.13
2018-03-17T17:39:36.173Z,10.73
2018-03-17T17:42:03.728Z,12.70
2018-03-17T17:44:32.012Z,11.17
2018-03-17T17:47:00.298Z,11.17
2018-03-17T17:49:29.072Z,11.07
2018-03-17T17:51:56.596Z,12.23
2018-03-17T17:54:24.124Z,12.00
2018-03-17T17:56:51.673Z,11.57
2018-03-17T17:59:19.192Z,11.67
2018-03-17T18:01:47.481Z,12.33
2018-03-17T18:04:15.898Z,11.43
2018-03-17T18:06:43.429Z,9.80
2018-03-17T18:09:11.712Z,9.90
2018-03-17T18:11:40.022Z,11.33
2018-03-17T18:14:07.564Z,12.70
2018-03-17T18:16:35.078Z,11.57
2018-03-17T18:19:02.640Z,10.23
2018-03-17T18:21:30.165Z,10.60
2018-03-17T18:23:57.741Z,9.57
2018-03-17T18:26:25.280Z,11.70
2018-03-17T18:28:52.799Z,10.90
2018-03-17T18:31:21.134Z,11.07
2018-03-17T18:33:48.672Z,9.90
2018-03-17T18:36:16.963Z,11.20
2018-03-17T18:38:44.491Z,11.60
2018-03-17T18:41:12.034Z,11.37
2018-03-17T18:43:39.566Z,11.27
2018-03-17T18:46:07.940Z,12.77
2018-03-17T18:48:35.492Z,11.43
2018-03-17T18:51:03.481Z,11.10
2018-03-17T18:53:31.010Z,11.67
2018-03-17T18:55:58.579Z,10.13
2018-03-17T18:58:26.097Z,12.13
2018-03-17T19:00:53.720Z,10.47
2018-03-17T19:03:21.288Z,12.77
2018-03-17T19:05:48.817Z,10.53
2018-03-17T19:08:16.381Z,12.13
2018-03-17T19:10:44.207Z,11.33
2018-03-17T19:13:11.730Z,12.03
2018-03-17T19:15:39.239Z,13.40
2018-03-17T19:18:07.088Z,9.43
2018-03-17T19:20:35.164Z,14.00
2018-03-17T19:23:03.444Z,11.43
2018-03-17T19:25:30.993Z,10.50
2018-03-17T19:27:58.514Z,10.97
2018-03-17T19:30:26.721Z,9.80
2018-03-17T19:32:54.268Z,11.37
2018-03-17T19:35:21.784Z,11.63
2018-03-17T19:37:49.304Z,11.40
2018-03-17T19:40:16.840Z,12.00
2018-03-17T19:42:46.289Z,8.20
2018-03-17T19:45:15.216Z,11.43
2018-03-17T19:47:42.804Z,10.27
2018-03-17T19:50:10.328Z,10.07
2018-03-17T19:52:37.860Z,11.17
2018-03-17T19:55:05.429Z,14.07
2018-03-17T19:57:32.950Z,12.73
2018-03-17T20:00:00.481Z,10.43
2018-03-17T20:02:28.054Z,12.67
2018-03-17T20:04:55.608Z,12.20
2018-03-17T20:07:23.120Z,10.97
2018-03-17T20:09:50.669Z,11.90
2018-03-17T20:12:18.188Z,10.50
2018-03-17T20:14:46.500Z,12.90
2018-03-17T20:17:14.118Z,10.67
2018-03-17T20:19:41.950Z,10.93
2018-03-17T20:22:12.004Z,12.23
2018-03-17T20:24:39.789Z,12.53
2018-03-17T20:27:07.336Z,12.23
2018-03-17T20:29:34.853Z,10.30
2018-03-17T20:32:02.406Z,10.63
2018-03-17T20:34:30.700Z,10.97
2018-03-17T20:36:58.253Z,10.37
2018-03-17T20:39:25.779Z,12.40
2018-03-17T20:41:54.062Z,12.60
2018-03-17T20:44:22.391Z,11.43
2018-03-17T20:46:49.920Z,11.77
2018-03-17T20:49:17.468Z,12.93
2018-03-17T20:51:44.979Z,11.43
2018-03-17T20:54:13.313Z,11.60
2018-03-17T20:56:40.844Z,12.60
2018-03-17T20:59:08.356Z,13.97
2018-03-17T21:01:35.889Z,12.30
2018-03-17T21:04:03.418Z,13.07
2018-03-17T21:06:30.959Z,12.30
2018-03-17T21:08:59.172Z,10.73
2018-03-17T21:11:26.712Z,11.83
2018-03-17T21:13:54.242Z,12.93
2018-03-17T21:16:22.527Z,11.03
2018-03-17T21:18:50.832Z,12.27
2018-03-17T21:21:18.359Z,12.57
2018-03-17T21:23:45.895Z,10.27
2018-03-17T21:26:13.416Z,11.37
2018-03-17T21:28:40.958Z,11.70
2018-03-17T21:31:08.472Z,10.97
2018-03-17T21:33:36.023Z,11.23
2018-03-17T21:36:03.553Z,13.63
2018-03-17T21:38:31.069Z,12.00
2018-03-17T21:40:58.608Z,11.43
2018-03-17T21:43:26.213Z,13.00
2018-03-17T21:45:53.743Z,12.20
2018-03-17T21:48:21.272Z,12.47
2018-03-17T21:50:48.822Z,13.57
2018-03-17T21:53:16.372Z,12.67
2018-03-17T21:55:43.955Z,14.77
2018-03-17T21:58:11.476Z,13.27
2018-03-17T22:00:39.014Z,12.10
2018-03-17T22:03:06.549Z,12.03
2018-03-17T22:05:34.829Z,11.80
2018-03-17T22:08:03.136Z,13.70
2018-03-17T22:10:31.328Z,15.13
2018-03-17T22:12:59.648Z,12.57
2018-03-17T22:15:27.248Z,11.07
2018-03-17T22:17:54.838Z,10.93
2018-03-17T22:20:22.381Z,11.23
2018-03-17T22:22:49.916Z,12.30
2018-03-17T22:25:17.463Z,12.43
2018-03-17T22:27:45.005Z,13.23
2018-03-17T22:30:12.549Z,12.30
2018-03-17T22:32:40.067Z,13.23
2018-03-17T22:35:08.370Z,12.03
2018-03-17T22:37:35.888Z,13.93
2018-03-17T22:40:03.409Z,14.07
2018-03-17T22:42:30.995Z,11.67
2018-03-17T22:44:59.431Z,11.93
2018-03-17T22:47:27.103Z,14.73
2018-03-17T22:49:54.714Z,14.57
2018-03-17T22:52:22.268Z,13.33
2018-03-17T22:54:49.813Z,12.17
2018-03-17T22:57:17.644Z,12.67
2018-03-17T22:59:45.228Z,11.53
2018-03-17T23:02:12.785Z,13.23
2018-03-17T23:04:40.316Z,11.57
2018-03-17T23:07:07.841Z,10.93
2018-03-17T23:09:35.420Z,14.00
2018-03-17T23:12:02.934Z,16.00
2018-03-17T23:14:31.240Z,13.57
2018-03-17T23:16:59.563Z,14.50
2018-03-17T23:19:27.195Z,15.67
2018-03-17T23:21:54.787Z,12.53
2018-03-17T23:24:22.314Z,12.03
2018-03-17T23:26:49.873Z,14.23
2018-03-17T23:29:17.385Z,13.30
2018-03-17T23:31:45.739Z,14.40
2018-03-17T23:34:13.292Z,12.87
2018-03-17T23:36:41.108Z,13.93
2018-03-17T23:39:09.652Z,13.53
2018-03-17T23:41:37.176Z,13.60
2018-03-17T23:44:05.481Z,13.50
2018-03-17T23:46:33.773Z,12.00
2018-03-17T23:49:01.318Z,14.30
2018-03-17T23:51:29.748Z,15.27
2018-03-17T23:53:57.456Z,13.67
2018-03-17T23:56:25.150Z,14.83
2018-03-17T23:58:53.148Z,13.47
